sensor_id;sensor_type;location;lat;lon;timestamp;P1;durP1;ratioP1;P2;durP2;ratioP2
18304;SDS011;9278;52.156;21.048;2022-10-17T00:01:04;35.67;;;20.98;;
18304;SDS011;9278;52.156;21.048;2022-10-17T00:03:35;37.08;;;21.02;;
18304;SDS011;9278;52.156;21.048;2022-10-17T00:06:04;37.20;;;21.40;;
18304;SDS011;9278;52.156;21.048;2022-10-17T00:08:33;39.13;;;21.88;;
18304;SDS011;9278;52.156;21.048;2022-10-17T00:11:03;33.95;;;20.85;;
18304;SDS011;9278;52.156;21.048;2022-10-17T00:13:33;39.05;;;21.30;;
18304;SDS011;9278;52.156;21.048;2022-10-17T00:16:01;36.97;;;20.63;;
18304;SDS011;9278;52.156;21.048;2022-10-17T00:18:30;38.97;;;21.75;;
18304;SDS011;9278;52.156;21.048;2022-10-17T00:21:00;37.17;;;21.70;;
18304;SDS011;9278;52.156;21.048;2022-10-17T00:23:28;36.78;;;21.13;;
18304;SDS011;9278;52.156;21.048;2022-10-17T00:25:57;40.83;;;22.38;;
18304;SDS011;9278;52.156;21.048;2022-10-17T00:28:26;39.92;;;21.08;;
18304;SDS011;9278;52.156;21.048;2022-10-17T00:30:55;37.78;;;21.83;;
18304;SDS011;9278;52.156;21.048;2022-10-17T00:33:24;38.78;;;22.50;;
18304;SDS011;9278;52.156;21.048;2022-10-17T00:36:02;37.80;;;22.08;;
18304;SDS011;9278;52.156;21.048;2022-10-17T00:38:34;38.90;;;22.02;;
18304;SDS011;9278;52.156;21.048;2022-10-17T00:41:02;37.40;;;22.27;;
18304;SDS011;9278;52.156;21.048;2022-10-17T00:46:18;39.45;;;23.38;;
18304;SDS011;9278;52.156;21.048;2022-10-17T00:48:48;38.05;;;22.15;;
18304;SDS011;9278;52.156;21.048;2022-10-17T00:51:21;37.03;;;21.75;;
18304;SDS011;9278;52.156;21.048;2022-10-17T00:53:55;40.40;;;22.23;;
18304;SDS011;9278;52.156;21.048;2022-10-17T00:56:23;35.72;;;21.30;;
18304;SDS011;9278;52.156;21.048;2022-10-17T00:58:51;40.30;;;21.30;;
18304;SDS011;9278;52.156;21.048;2022-10-17T01:01:20;39.45;;;21.27;;
18304;SDS011;9278;52.156;21.048;2022-10-17T01:03:48;39.05;;;23.25;;
18304;SDS011;9278;52.156;21.048;2022-10-17T01:06:16;39.42;;;22.15;;
18304;SDS011;9278;52.156;21.048;2022-10-17T01:08:46;42.58;;;21.85;;
18304;SDS011;9278;52.156;21.048;2022-10-17T01:11:19;43.60;;;22.73;;
18304;SDS011;9278;52.156;21.048;2022-10-17T01:13:55;39.95;;;22.73;;
18304;SDS011;9278;52.156;21.048;2022-10-17T01:16:32;35.08;;;22.17;;
18304;SDS011;9278;52.156;21.048;2022-10-17T01:19:10;39.22;;;23.05;;
18304;SDS011;9278;52.156;21.048;2022-10-17T01:22:01;37.30;;;20.85;;
18304;SDS011;9278;52.156;21.048;2022-10-17T01:24:45;37.90;;;21.17;;
18304;SDS011;9278;52.156;21.048;2022-10-17T01:27:44;34.92;;;21.20;;
18304;SDS011;9278;52.156;21.048;2022-10-17T01:33:13;37.33;;;21.70;;
18304;SDS011;9278;52.156;21.048;2022-10-17T01:35:50;37.15;;;21.40;;
18304;SDS011;9278;52.156;21.048;2022-10-17T01:38:22;33.70;;;20.75;;
18304;SDS011;9278;52.156;21.048;2022-10-17T01:40:55;36.95;;;21.58;;
18304;SDS011;9278;52.156;21.048;2022-10-17T01:43:28;37.15;;;21.35;;
18304;SDS011;9278;52.156;21.048;2022-10-17T01:46:04;37.30;;;21.85;;
18304;SDS011;9278;52.156;21.048;2022-10-17T01:48:39;38.17;;;21.02;;
18304;SDS011;9278;52.156;21.048;2022-10-17T01:51:12;38.92;;;21.88;;
18304;SDS011;9278;52.156;21.048;2022-10-17T01:53:45;36.65;;;21.75;;
18304;SDS011;9278;52.156;21.048;2022-10-17T01:56:18;33.65;;;21.10;;
18304;SDS011;9278;52.156;21.048;2022-10-17T01:58:49;37.35;;;20.65;;
18304;SDS011;9278;52.156;21.048;2022-10-17T02:01:23;38.28;;;22.23;;
18304;SDS011;9278;52.156;21.048;2022-10-17T02:03:53;35.35;;;21.52;;
18304;SDS011;9278;52.156;21.048;2022-10-17T02:06:26;36.92;;;20.42;;
18304;SDS011;9278;52.156;21.048;2022-10-17T02:08:55;35.53;;;21.92;;
18304;SDS011;9278;52.156;21.048;2022-10-17T02:11:24;35.50;;;19.92;;
18304;SDS011;9278;52.156;21.048;2022-10-17T02:14:03;39.13;;;21.40;;
18304;SDS011;9278;52.156;21.048;2022-10-17T02:16:48;35.70;;;21.40;;
18304;SDS011;9278;52.156;21.048;2022-10-17T02:19:27;36.75;;;21.65;;
18304;SDS011;9278;52.156;21.048;2022-10-17T02:22:12;41.65;;;22.98;;
18304;SDS011;9278;52.156;21.048;2022-10-17T02:24:47;36.47;;;21.55;;
18304;SDS011;9278;52.156;21.048;2022-10-17T02:27:22;38.60;;;21.52;;
18304;SDS011;9278;52.156;21.048;2022-10-17T02:29:56;38.30;;;21.40;;
18304;SDS011;9278;52.156;21.048;2022-10-17T02:32:32;34.58;;;21.25;;
18304;SDS011;9278;52.156;21.048;2022-10-17T02:35:06;38.55;;;22.75;;
18304;SDS011;9278;52.156;21.048;2022-10-17T02:37:37;38.33;;;21.33;;
18304;SDS011;9278;52.156;21.048;2022-10-17T02:40:07;36.55;;;20.92;;
18304;SDS011;9278;52.156;21.048;2022-10-17T02:42:39;39.53;;;22.88;;
18304;SDS011;9278;52.156;21.048;2022-10-17T02:45:11;38.42;;;21.08;;
18304;SDS011;9278;52.156;21.048;2022-10-17T02:47:45;39.00;;;21.08;;
18304;SDS011;9278;52.156;21.048;2022-10-17T02:50:18;36.30;;;20.55;;
18304;SDS011;9278;52.156;21.048;2022-10-17T02:53:00;38.15;;;22.25;;
18304;SDS011;9278;52.156;21.048;2022-10-17T02:55:34;35.22;;;20.60;;
18304;SDS011;9278;52.156;21.048;2022-10-17T02:58:07;35.35;;;21.05;;
18304;SDS011;9278;52.156;21.048;2022-10-17T03:00:41;41.58;;;21.40;;
18304;SDS011;9278;52.156;21.048;2022-10-17T03:03:22;40.05;;;20.88;;
18304;SDS011;9278;52.156;21.048;2022-10-17T03:05:52;43.15;;;22.13;;
18304;SDS011;9278;52.156;21.048;2022-10-17T03:08:24;38.55;;;21.83;;
18304;SDS011;9278;52.156;21.048;2022-10-17T03:10:54;41.60;;;23.13;;
18304;SDS011;9278;52.156;21.048;2022-10-17T03:13:24;51.33;;;23.45;;
18304;SDS011;9278;52.156;21.048;2022-10-17T03:15:54;44.35;;;24.00;;
18304;SDS011;9278;52.156;21.048;2022-10-17T03:18:24;41.70;;;24.42;;
18304;SDS011;9278;52.156;21.048;2022-10-17T03:20:57;41.33;;;23.75;;
18304;SDS011;9278;52.156;21.048;2022-10-17T03:23:26;46.15;;;23.60;;
18304;SDS011;9278;52.156;21.048;2022-10-17T03:25:54;36.25;;;20.95;;
18304;SDS011;9278;52.156;21.048;2022-10-17T03:28:22;44.53;;;23.55;;
18304;SDS011;9278;52.156;21.048;2022-10-17T03:30:51;42.17;;;23.95;;
18304;SDS011;9278;52.156;21.048;2022-10-17T03:33:20;44.55;;;23.77;;
18304;SDS011;9278;52.156;21.048;2022-10-17T03:35:49;45.45;;;24.80;;
18304;SDS011;9278;52.156;21.048;2022-10-17T03:38:18;44.83;;;23.55;;
18304;SDS011;9278;52.156;21.048;2022-10-17T03:40:53;45.08;;;25.85;;
18304;SDS011;9278;52.156;21.048;2022-10-17T03:43:21;43.78;;;25.10;;
18304;SDS011;9278;52.156;21.048;2022-10-17T03:45:50;43.53;;;25.73;;
18304;SDS011;9278;52.156;21.048;2022-10-17T03:48:18;41.10;;;24.52;;
18304;SDS011;9278;52.156;21.048;2022-10-17T03:50:46;45.67;;;24.33;;
18304;SDS011;9278;52.156;21.048;2022-10-17T03:53:17;46.97;;;24.73;;
18304;SDS011;9278;52.156;21.048;2022-10-17T03:55:45;41.13;;;23.30;;
18304;SDS011;9278;52.156;21.048;2022-10-17T03:58:13;44.53;;;25.40;;
18304;SDS011;9278;52.156;21.048;2022-10-17T04:00:43;44.90;;;25.13;;
18304;SDS011;9278;52.156;21.048;2022-10-17T04:03:11;42.13;;;25.10;;
18304;SDS011;9278;52.156;21.048;2022-10-17T04:05:43;42.42;;;23.65;;
18304;SDS011;9278;52.156;21.048;2022-10-17T04:08:11;48.65;;;24.30;;
18304;SDS011;9278;52.156;21.048;2022-10-17T04:10:59;45.92;;;25.23;;
18304;SDS011;9278;52.156;21.048;2022-10-17T04:13:29;41.25;;;23.27;;
18304;SDS011;9278;52.156;21.048;2022-10-17T04:15:59;41.17;;;23.77;;
18304;SDS011;9278;52.156;21.048;2022-10-17T04:18:29;34.67;;;21.42;;
18304;SDS011;9278;52.156;21.048;2022-10-17T04:21:00;37.83;;;23.08;;
18304;SDS011;9278;52.156;21.048;2022-10-17T04:23:30;38.88;;;23.15;;
18304;SDS011;9278;52.156;21.048;2022-10-17T04:26:08;39.08;;;22.92;;
18304;SDS011;9278;52.156;21.048;2022-10-17T04:28:38;35.97;;;21.83;;
18304;SDS011;9278;52.156;21.048;2022-10-17T04:31:07;42.97;;;22.58;;
18304;SDS011;9278;52.156;21.048;2022-10-17T04:33:57;40.58;;;23.13;;
18304;SDS011;9278;52.156;21.048;2022-10-17T04:36:25;40.90;;;22.10;;
18304;SDS011;9278;52.156;21.048;2022-10-17T04:38:54;45.13;;;24.67;;
18304;SDS011;9278;52.156;21.048;2022-10-17T04:41:23;45.13;;;24.25;;
18304;SDS011;9278;52.156;21.048;2022-10-17T04:43:52;43.85;;;24.25;;
18304;SDS011;9278;52.156;21.048;2022-10-17T04:46:21;45.42;;;24.55;;
18304;SDS011;9278;52.156;21.048;2022-10-17T04:48:49;46.45;;;24.80;;
18304;SDS011;9278;52.156;21.048;2022-10-17T04:51:18;42.28;;;25.20;;
18304;SDS011;9278;52.156;21.048;2022-10-17T04:54:20;45.40;;;26.05;;
18304;SDS011;9278;52.156;21.048;2022-10-17T04:56:57;44.20;;;25.83;;
18304;SDS011;9278;52.156;21.048;2022-10-17T04:59:25;48.70;;;26.50;;
18304;SDS011;9278;52.156;21.048;2022-10-17T05:02:22;42.10;;;24.80;;
18304;SDS011;9278;52.156;21.048;2022-10-17T05:04:51;46.85;;;26.58;;
18304;SDS011;9278;52.156;21.048;2022-10-17T05:07:20;48.58;;;25.75;;
18304;SDS011;9278;52.156;21.048;2022-10-17T05:09:57;48.35;;;26.27;;
18304;SDS011;9278;52.156;21.048;2022-10-17T05:12:27;45.63;;;25.88;;
18304;SDS011;9278;52.156;21.048;2022-10-17T05:14:55;49.70;;;27.95;;
18304;SDS011;9278;52.156;21.048;2022-10-17T05:17:26;47.65;;;27.42;;
18304;SDS011;9278;52.156;21.048;2022-10-17T05:19:54;45.30;;;26.17;;
18304;SDS011;9278;52.156;21.048;2022-10-17T05:22:22;50.08;;;27.35;;
18304;SDS011;9278;52.156;21.048;2022-10-17T05:24:51;47.60;;;27.60;;
18304;SDS011;9278;52.156;21.048;2022-10-17T05:27:19;46.63;;;26.73;;
18304;SDS011;9278;52.156;21.048;2022-10-17T05:29:49;46.30;;;27.33;;
18304;SDS011;9278;52.156;21.048;2022-10-17T05:32:23;47.38;;;27.23;;
18304;SDS011;9278;52.156;21.048;2022-10-17T05:34:52;54.92;;;26.63;;
18304;SDS011;9278;52.156;21.048;2022-10-17T05:37:22;46.53;;;26.52;;
18304;SDS011;9278;52.156;21.048;2022-10-17T05:39:53;46.53;;;25.40;;
18304;SDS011;9278;52.156;21.048;2022-10-17T05:42:22;43.58;;;25.33;;
18304;SDS011;9278;52.156;21.048;2022-10-17T05:44:52;48.28;;;25.83;;
18304;SDS011;9278;52.156;21.048;2022-10-17T05:47:20;39.10;;;24.15;;
18304;SDS011;9278;52.156;21.048;2022-10-17T05:49:49;45.17;;;24.38;;
18304;SDS011;9278;52.156;21.048;2022-10-17T05:52:28;43.25;;;23.75;;
18304;SDS011;9278;52.156;21.048;2022-10-17T05:55:17;42.42;;;23.83;;
18304;SDS011;9278;52.156;21.048;2022-10-17T05:57:45;40.40;;;23.58;;
18304;SDS011;9278;52.156;21.048;2022-10-17T06:00:18;42.42;;;23.55;;
18304;SDS011;9278;52.156;21.048;2022-10-17T06:02:54;38.65;;;22.88;;
18304;SDS011;9278;52.156;21.048;2022-10-17T06:05:23;46.50;;;22.25;;
18304;SDS011;9278;52.156;21.048;2022-10-17T06:07:51;39.60;;;22.45;;
18304;SDS011;9278;52.156;21.048;2022-10-17T06:10:28;39.00;;;22.42;;
18304;SDS011;9278;52.156;21.048;2022-10-17T06:12:57;42.25;;;22.85;;
18304;SDS011;9278;52.156;21.048;2022-10-17T06:15:27;39.78;;;22.10;;
18304;SDS011;9278;52.156;21.048;2022-10-17T06:18:00;38.20;;;22.92;;
18304;SDS011;9278;52.156;21.048;2022-10-17T06:20:32;41.58;;;23.33;;
18304;SDS011;9278;52.156;21.048;2022-10-17T06:23:01;41.25;;;23.40;;
18304;SDS011;9278;52.156;21.048;2022-10-17T06:25:50;36.58;;;21.85;;
18304;SDS011;9278;52.156;21.048;2022-10-17T06:28:19;36.78;;;21.45;;
18304;SDS011;9278;52.156;21.048;2022-10-17T06:30:48;37.75;;;22.08;;
18304;SDS011;9278;52.156;21.048;2022-10-17T06:33:17;45.42;;;23.05;;
18304;SDS011;9278;52.156;21.048;2022-10-17T06:35:49;40.38;;;23.10;;
18304;SDS011;9278;52.156;21.048;2022-10-17T06:38:18;38.67;;;22.23;;
18304;SDS011;9278;52.156;21.048;2022-10-17T06:40:49;43.67;;;22.85;;
18304;SDS011;9278;52.156;21.048;2022-10-17T06:43:19;46.05;;;23.27;;
18304;SDS011;9278;52.156;21.048;2022-10-17T06:46:17;41.63;;;23.77;;
18304;SDS011;9278;52.156;21.048;2022-10-17T06:48:58;40.05;;;23.02;;
18304;SDS011;9278;52.156;21.048;2022-10-17T06:51:44;39.35;;;22.13;;
18304;SDS011;9278;52.156;21.048;2022-10-17T06:54:15;37.17;;;22.50;;
18304;SDS011;9278;52.156;21.048;2022-10-17T06:57:01;39.70;;;22.83;;
18304;SDS011;9278;52.156;21.048;2022-10-17T06:59:49;42.67;;;24.35;;
18304;SDS011;9278;52.156;21.048;2022-10-17T07:02:22;42.83;;;23.10;;
18304;SDS011;9278;52.156;21.048;2022-10-17T07:04:52;42.47;;;22.55;;
18304;SDS011;9278;52.156;21.048;2022-10-17T07:07:21;40.13;;;23.85;;
18304;SDS011;9278;52.156;21.048;2022-10-17T07:09:51;41.38;;;24.60;;
18304;SDS011;9278;52.156;21.048;2022-10-17T07:12:19;48.15;;;25.23;;
18304;SDS011;9278;52.156;21.048;2022-10-17T07:14:49;41.72;;;24.60;;
18304;SDS011;9278;52.156;21.048;2022-10-17T07:17:20;48.55;;;25.58;;
18304;SDS011;9278;52.156;21.048;2022-10-17T07:19:50;44.42;;;25.08;;
18304;SDS011;9278;52.156;21.048;2022-10-17T07:22:18;42.22;;;25.48;;
18304;SDS011;9278;52.156;21.048;2022-10-17T07:24:49;44.35;;;23.92;;
18304;SDS011;9278;52.156;21.048;2022-10-17T07:27:32;41.38;;;23.55;;
18304;SDS011;9278;52.156;21.048;2022-10-17T07:30:00;42.67;;;23.70;;
18304;SDS011;9278;52.156;21.048;2022-10-17T07:32:36;38.90;;;24.20;;
18304;SDS011;9278;52.156;21.048;2022-10-17T07:35:07;38.90;;;23.00;;
18304;SDS011;9278;52.156;21.048;2022-10-17T07:37:36;39.85;;;22.00;;
18304;SDS011;9278;52.156;21.048;2022-10-17T07:40:06;39.63;;;22.30;;
18304;SDS011;9278;52.156;21.048;2022-10-17T07:42:36;43.65;;;24.13;;
18304;SDS011;9278;52.156;21.048;2022-10-17T07:45:10;41.92;;;23.17;;
18304;SDS011;9278;52.156;21.048;2022-10-17T07:47:41;39.17;;;22.20;;
18304;SDS011;9278;52.156;21.048;2022-10-17T07:50:13;37.22;;;22.65;;
18304;SDS011;9278;52.156;21.048;2022-10-17T07:52:42;38.83;;;22.52;;
18304;SDS011;9278;52.156;21.048;2022-10-17T07:55:10;42.78;;;22.17;;
18304;SDS011;9278;52.156;21.048;2022-10-17T07:57:38;42.95;;;24.60;;
18304;SDS011;9278;52.156;21.048;2022-10-17T08:00:07;39.45;;;22.88;;
18304;SDS011;9278;52.156;21.048;2022-10-17T08:02:39;39.65;;;21.23;;
18304;SDS011;9278;52.156;21.048;2022-10-17T08:05:09;40.47;;;21.65;;
18304;SDS011;9278;52.156;21.048;2022-10-17T08:07:37;33.70;;;20.40;;
18304;SDS011;9278;52.156;21.048;2022-10-17T08:10:07;38.53;;;21.25;;
18304;SDS011;9278;52.156;21.048;2022-10-17T08:12:36;37.28;;;21.17;;
18304;SDS011;9278;52.156;21.048;2022-10-17T08:15:05;46.75;;;21.38;;
18304;SDS011;9278;52.156;21.048;2022-10-17T08:17:35;36.50;;;20.67;;
18304;SDS011;9278;52.156;21.048;2022-10-17T08:20:06;35.28;;;21.35;;
18304;SDS011;9278;52.156;21.048;2022-10-17T08:22:35;39.58;;;20.65;;
18304;SDS011;9278;52.156;21.048;2022-10-17T08:25:03;35.30;;;20.05;;
18304;SDS011;9278;52.156;21.048;2022-10-17T08:27:32;33.75;;;20.13;;
18304;SDS011;9278;52.156;21.048;2022-10-17T08:30:01;35.80;;;19.90;;
18304;SDS011;9278;52.156;21.048;2022-10-17T08:32:29;35.28;;;20.67;;
18304;SDS011;9278;52.156;21.048;2022-10-17T08:34:58;34.63;;;19.55;;
18304;SDS011;9278;52.156;21.048;2022-10-17T08:37:28;33.25;;;19.15;;
18304;SDS011;9278;52.156;21.048;2022-10-17T08:39:57;35.85;;;19.27;;
18304;SDS011;9278;52.156;21.048;2022-10-17T08:42:29;34.95;;;18.95;;
18304;SDS011;9278;52.156;21.048;2022-10-17T08:45:17;30.92;;;19.42;;
18304;SDS011;9278;52.156;21.048;2022-10-17T08:47:56;36.33;;;18.98;;
18304;SDS011;9278;52.156;21.048;2022-10-17T08:50:28;33.35;;;19.40;;
18304;SDS011;9278;52.156;21.048;2022-10-17T08:53:04;33.72;;;19.10;;
18304;SDS011;9278;52.156;21.048;2022-10-17T08:55:41;30.83;;;18.98;;
18304;SDS011;9278;52.156;21.048;2022-10-17T08:58:12;33.95;;;18.65;;
18304;SDS011;9278;52.156;21.048;2022-10-17T09:00:45;33.90;;;18.42;;
18304;SDS011;9278;52.156;21.048;2022-10-17T09:03:21;32.67;;;18.83;;
18304;SDS011;9278;52.156;21.048;2022-10-17T09:06:09;28.58;;;18.70;;
18304;SDS011;9278;52.156;21.048;2022-10-17T09:08:46;29.63;;;17.92;;
18304;SDS011;9278;52.156;21.048;2022-10-17T09:11:26;33.58;;;18.77;;
18304;SDS011;9278;52.156;21.048;2022-10-17T09:14:11;30.23;;;18.30;;
18304;SDS011;9278;52.156;21.048;2022-10-17T09:17:01;28.75;;;17.52;;
18304;SDS011;9278;52.156;21.048;2022-10-17T09:19:42;31.00;;;17.90;;
18304;SDS011;9278;52.156;21.048;2022-10-17T09:22:16;32.65;;;17.77;;
18304;SDS011;9278;52.156;21.048;2022-10-17T09:24:50;29.95;;;17.13;;
18304;SDS011;9278;52.156;21.048;2022-10-17T09:27:22;29.23;;;17.25;;
18304;SDS011;9278;52.156;21.048;2022-10-17T09:29:53;27.92;;;16.52;;
18304;SDS011;9278;52.156;21.048;2022-10-17T09:32:28;28.13;;;16.30;;
18304;SDS011;9278;52.156;21.048;2022-10-17T09:34:57;27.92;;;16.48;;
18304;SDS011;9278;52.156;21.048;2022-10-17T09:37:28;30.85;;;16.38;;
18304;SDS011;9278;52.156;21.048;2022-10-17T09:40:00;26.05;;;16.20;;
18304;SDS011;9278;52.156;21.048;2022-10-17T09:42:28;30.77;;;16.33;;
18304;SDS011;9278;52.156;21.048;2022-10-17T09:45:01;27.75;;;16.15;;
18304;SDS011;9278;52.156;21.048;2022-10-17T09:47:41;27.80;;;15.85;;
18304;SDS011;9278;52.156;21.048;2022-10-17T09:50:19;30.17;;;15.95;;
18304;SDS011;9278;52.156;21.048;2022-10-17T09:52:52;23.55;;;14.82;;
18304;SDS011;9278;52.156;21.048;2022-10-17T09:55:24;22.75;;;15.18;;
18304;SDS011;9278;52.156;21.048;2022-10-17T09:57:58;25.27;;;15.30;;
18304;SDS011;9278;52.156;21.048;2022-10-17T10:00:28;23.73;;;14.93;;
18304;SDS011;9278;52.156;21.048;2022-10-17T10:03:07;26.75;;;15.35;;
18304;SDS011;9278;52.156;21.048;2022-10-17T10:05:42;25.33;;;15.40;;
18304;SDS011;9278;52.156;21.048;2022-10-17T10:08:25;29.13;;;14.93;;
18304;SDS011;9278;52.156;21.048;2022-10-17T10:10:58;24.77;;;14.75;;
18304;SDS011;9278;52.156;21.048;2022-10-17T10:13:30;23.98;;;15.15;;
18304;SDS011;9278;52.156;21.048;2022-10-17T10:16:12;25.20;;;14.88;;
18304;SDS011;9278;52.156;21.048;2022-10-17T10:18:50;22.83;;;14.27;;
18304;SDS011;9278;52.156;21.048;2022-10-17T10:21:19;23.60;;;14.70;;
18304;SDS011;9278;52.156;21.048;2022-10-17T10:24:05;23.05;;;14.07;;
18304;SDS011;9278;52.156;21.048;2022-10-17T10:26:41;24.70;;;14.35;;
18304;SDS011;9278;52.156;21.048;2022-10-17T10:29:22;26.38;;;14.05;;
18304;SDS011;9278;52.156;21.048;2022-10-17T10:31:57;25.80;;;14.32;;
18304;SDS011;9278;52.156;21.048;2022-10-17T10:34:35;22.63;;;13.52;;
18304;SDS011;9278;52.156;21.048;2022-10-17T10:37:15;23.42;;;13.25;;
18304;SDS011;9278;52.156;21.048;2022-10-17T10:39:47;21.40;;;13.57;;
18304;SDS011;9278;52.156;21.048;2022-10-17T10:42:19;24.70;;;13.40;;
18304;SDS011;9278;52.156;21.048;2022-10-17T10:44:54;24.77;;;14.57;;
18304;SDS011;9278;52.156;21.048;2022-10-17T10:47:25;22.02;;;13.85;;
18304;SDS011;9278;52.156;21.048;2022-10-17T10:52:45;21.40;;;13.63;;
18304;SDS011;9278;52.156;21.048;2022-10-17T10:55:20;29.52;;;14.85;;
18304;SDS011;9278;52.156;21.048;2022-10-17T10:57:55;23.83;;;14.98;;
18304;SDS011;9278;52.156;21.048;2022-10-17T11:00:26;22.90;;;13.80;;
18304;SDS011;9278;52.156;21.048;2022-10-17T11:02:59;21.45;;;13.45;;
18304;SDS011;9278;52.156;21.048;2022-10-17T11:05:39;20.05;;;13.48;;
18304;SDS011;9278;52.156;21.048;2022-10-17T11:08:14;26.08;;;13.55;;
18304;SDS011;9278;52.156;21.048;2022-10-17T11:10:55;20.60;;;13.70;;
18304;SDS011;9278;52.156;21.048;2022-10-17T11:13:33;22.73;;;13.77;;
18304;SDS011;9278;52.156;21.048;2022-10-17T11:16:13;21.73;;;13.77;;
18304;SDS011;9278;52.156;21.048;2022-10-17T11:18:48;24.15;;;13.68;;
18304;SDS011;9278;52.156;21.048;2022-10-17T11:21:22;23.02;;;13.55;;
18304;SDS011;9278;52.156;21.048;2022-10-17T11:23:59;26.27;;;14.70;;
18304;SDS011;9278;52.156;21.048;2022-10-17T11:26:37;24.80;;;13.07;;
18304;SDS011;9278;52.156;21.048;2022-10-17T11:29:12;23.40;;;14.75;;
18304;SDS011;9278;52.156;21.048;2022-10-17T11:31:43;28.88;;;14.77;;
18304;SDS011;9278;52.156;21.048;2022-10-17T11:34:17;23.70;;;13.70;;
18304;SDS011;9278;52.156;21.048;2022-10-17T11:36:50;23.92;;;14.30;;
18304;SDS011;9278;52.156;21.048;2022-10-17T11:39:21;24.67;;;13.88;;
18304;SDS011;9278;52.156;21.048;2022-10-17T11:41:57;21.65;;;13.45;;
18304;SDS011;9278;52.156;21.048;2022-10-17T11:44:33;29.67;;;14.77;;
18304;SDS011;9278;52.156;21.048;2022-10-17T11:47:04;21.02;;;13.88;;
18304;SDS011;9278;52.156;21.048;2022-10-17T11:49:39;22.77;;;14.45;;
18304;SDS011;9278;52.156;21.048;2022-10-17T11:52:17;20.67;;;14.05;;
18304;SDS011;9278;52.156;21.048;2022-10-17T11:55:16;23.17;;;13.93;;
18304;SDS011;9278;52.156;21.048;2022-10-17T11:57:57;20.83;;;13.35;;
18304;SDS011;9278;52.156;21.048;2022-10-17T12:00:47;22.45;;;14.15;;
18304;SDS011;9278;52.156;21.048;2022-10-17T12:06:13;24.77;;;14.35;;
18304;SDS011;9278;52.156;21.048;2022-10-17T12:08:50;26.77;;;13.50;;
18304;SDS011;9278;52.156;21.048;2022-10-17T12:11:27;24.52;;;13.75;;
18304;SDS011;9278;52.156;21.048;2022-10-17T12:14:01;21.80;;;13.25;;
18304;SDS011;9278;52.156;21.048;2022-10-17T12:16:43;23.83;;;13.32;;
18304;SDS011;9278;52.156;21.048;2022-10-17T12:19:25;26.38;;;13.98;;
18304;SDS011;9278;52.156;21.048;2022-10-17T12:21:59;18.83;;;12.77;;
18304;SDS011;9278;52.156;21.048;2022-10-17T12:24:34;22.13;;;13.93;;
18304;SDS011;9278;52.156;21.048;2022-10-17T12:30:14;25.85;;;12.40;;
18304;SDS011;9278;52.156;21.048;2022-10-17T12:32:56;20.63;;;12.10;;
18304;SDS011;9278;52.156;21.048;2022-10-17T12:35:33;20.27;;;12.57;;
18304;SDS011;9278;52.156;21.048;2022-10-17T12:40:54;24.80;;;13.15;;
18304;SDS011;9278;52.156;21.048;2022-10-17T12:55:15;21.42;;;13.38;;
18304;SDS011;9278;52.156;21.048;2022-10-17T12:57:49;23.55;;;13.48;;
18304;SDS011;9278;52.156;21.048;2022-10-17T13:00:22;21.67;;;13.45;;
18304;SDS011;9278;52.156;21.048;2022-10-17T13:03:01;21.35;;;13.30;;
18304;SDS011;9278;52.156;21.048;2022-10-17T13:05:41;24.02;;;13.38;;
18304;SDS011;9278;52.156;21.048;2022-10-17T13:08:14;23.83;;;12.95;;
18304;SDS011;9278;52.156;21.048;2022-10-17T13:10:50;21.08;;;12.88;;
18304;SDS011;9278;52.156;21.048;2022-10-17T13:13:20;21.60;;;12.25;;
18304;SDS011;9278;52.156;21.048;2022-10-17T13:15:51;19.67;;;12.77;;
18304;SDS011;9278;52.156;21.048;2022-10-17T13:18:21;18.63;;;12.65;;
18304;SDS011;9278;52.156;21.048;2022-10-17T13:20:56;21.73;;;12.98;;
18304;SDS011;9278;52.156;21.048;2022-10-17T13:23:28;20.63;;;12.50;;
18304;SDS011;9278;52.156;21.048;2022-10-17T13:26:05;23.33;;;12.65;;
18304;SDS011;9278;52.156;21.048;2022-10-17T13:28:39;17.88;;;12.43;;
18304;SDS011;9278;52.156;21.048;2022-10-17T13:31:20;23.30;;;13.07;;
18304;SDS011;9278;52.156;21.048;2022-10-17T13:33:54;24.33;;;13.23;;
18304;SDS011;9278;52.156;21.048;2022-10-17T13:36:25;20.42;;;13.60;;
18304;SDS011;9278;52.156;21.048;2022-10-17T13:38:56;27.52;;;12.95;;
18304;SDS011;9278;52.156;21.048;2022-10-17T13:41:26;25.67;;;13.13;;
18304;SDS011;9278;52.156;21.048;2022-10-17T13:44:02;25.67;;;13.18;;
18304;SDS011;9278;52.156;21.048;2022-10-17T13:46:38;22.77;;;13.98;;
18304;SDS011;9278;52.156;21.048;2022-10-17T13:49:11;21.35;;;12.70;;
18304;SDS011;9278;52.156;21.048;2022-10-17T13:51:53;19.80;;;12.73;;
18304;SDS011;9278;52.156;21.048;2022-10-17T13:54:32;24.17;;;13.15;;
18304;SDS011;9278;52.156;21.048;2022-10-17T13:57:03;23.85;;;13.48;;
18304;SDS011;9278;52.156;21.048;2022-10-17T13:59:36;21.90;;;13.02;;
18304;SDS011;9278;52.156;21.048;2022-10-17T14:02:08;21.63;;;13.25;;
18304;SDS011;9278;52.156;21.048;2022-10-17T14:04:41;21.23;;;13.75;;
18304;SDS011;9278;52.156;21.048;2022-10-17T14:07:32;23.05;;;13.18;;
18304;SDS011;9278;52.156;21.048;2022-10-17T14:10:24;21.92;;;13.65;;
18304;SDS011;9278;52.156;21.048;2022-10-17T14:12:54;25.80;;;13.35;;
18304;SDS011;9278;52.156;21.048;2022-10-17T14:15:24;24.85;;;13.25;;
18304;SDS011;9278;52.156;21.048;2022-10-17T14:17:54;21.75;;;13.40;;
18304;SDS011;9278;52.156;21.048;2022-10-17T14:20:29;27.10;;;13.55;;
18304;SDS011;9278;52.156;21.048;2022-10-17T14:23:30;24.05;;;13.85;;
18304;SDS011;9278;52.156;21.048;2022-10-17T14:26:04;21.65;;;13.10;;
18304;SDS011;9278;52.156;21.048;2022-10-17T14:28:34;27.23;;;13.90;;
18304;SDS011;9278;52.156;21.048;2022-10-17T14:33:56;21.52;;;13.07;;
18304;SDS011;9278;52.156;21.048;2022-10-17T14:36:30;26.58;;;14.18;;
18304;SDS011;9278;52.156;21.048;2022-10-17T14:39:06;22.30;;;13.70;;
18304;SDS011;9278;52.156;21.048;2022-10-17T14:41:42;24.80;;;14.18;;
18304;SDS011;9278;52.156;21.048;2022-10-17T14:44:14;26.85;;;14.10;;
18304;SDS011;9278;52.156;21.048;2022-10-17T14:46:47;21.48;;;13.80;;
18304;SDS011;9278;52.156;21.048;2022-10-17T14:49:23;21.63;;;13.18;;
18304;SDS011;9278;52.156;21.048;2022-10-17T14:55:10;25.70;;;14.63;;
18304;SDS011;9278;52.156;21.048;2022-10-17T14:57:47;26.58;;;14.50;;
18304;SDS011;9278;52.156;21.048;2022-10-17T15:00:15;24.10;;;14.95;;
18304;SDS011;9278;52.156;21.048;2022-10-17T15:02:44;24.55;;;14.23;;
18304;SDS011;9278;52.156;21.048;2022-10-17T15:05:13;26.35;;;14.07;;
18304;SDS011;9278;52.156;21.048;2022-10-17T15:07:42;25.50;;;14.65;;
18304;SDS011;9278;52.156;21.048;2022-10-17T15:10:23;26.58;;;14.73;;
18304;SDS011;9278;52.156;21.048;2022-10-17T15:12:54;25.63;;;15.25;;
18304;SDS011;9278;52.156;21.048;2022-10-17T15:15:41;24.60;;;14.88;;
18304;SDS011;9278;52.156;21.048;2022-10-17T15:18:13;22.48;;;14.57;;
18304;SDS011;9278;52.156;21.048;2022-10-17T15:20:41;31.13;;;14.95;;
18304;SDS011;9278;52.156;21.048;2022-10-17T15:23:10;27.75;;;14.23;;
18304;SDS011;9278;52.156;21.048;2022-10-17T15:25:39;25.70;;;14.98;;
18304;SDS011;9278;52.156;21.048;2022-10-17T15:28:08;29.27;;;15.70;;
18304;SDS011;9278;52.156;21.048;2022-10-17T15:30:39;24.75;;;14.48;;
18304;SDS011;9278;52.156;21.048;2022-10-17T15:33:07;26.30;;;14.80;;